Norse Mersey — IBEN — position and weather

sailwx.info

Track history (hours):
 
Tides and Currents Weather Stations Pressure Air Temp Water Temp Dewpoint Dewpoint Depression Visibility Wind Speed Wind Dir Waves Ship Positions

Norse Mersey

Operator: Norse Merchant Ferries

Last reported at 2017-Oct-18 05:34 UTC. Time now 2017-Oct-18 09:18 UTC.
Position N 39°55' E 014°54'.

Length 175 m; draft 5.6 m.

Type: Passenger vessel. MMSI: 247026000.

Date/timePositionNaut miles runAvg speedWind from/ knotsBaromVisibWave heightAir tempDewpointWater temp
2017-Oct-18 05:34N 39°55' E 014°54'2815.7
2017-Oct-18 03:48N 39°29' E 015°08'3815.7
2017-Oct-18 01:22N 38°54' E 015°25'2216.0
2017-Oct-17 23:58N 38°33' E 015°35'715.8
2017-Oct-17 23:30N 38°26' E 015°39'815.6
2017-Oct-17 23:00N 38°19' E 015°43'612.4
2017-Oct-17 22:29N 38°14' E 015°37'714.7
2017-Oct-17 22:00N 38°07' E 015°36'815.1
2017-Oct-17 21:30N 37°60' E 015°33'1715.4
2017-Oct-17 20:23N 37°45' E 015°23'10 0.8
2017-Oct-17 07:37N 37°54' E 015°26'915.7
2017-Oct-17 07:04N 38°02' E 015°31'315.3
2017-Oct-17 06:51N 38°05' E 015°32'515.2
2017-Oct-17 06:30N 38°10' E 015°35'813.8
2017-Oct-17 05:54N 38°17' E 015°40'1 3.5
2017-Oct-17 05:30N 38°18' E 015°41'4 9.0
2017-Oct-17 05:00N 38°23' E 015°39'913.2
2017-Oct-17 04:20N 38°31' E 015°35'714.9
2017-Oct-17 03:52N 38°37' E 015°32'2515.7
2017-Oct-17 02:17N 39°01' E 015°21'2615.8
2017-Oct-17 00:40N 39°25' E 015°09'4916.1
2017-Oct-16 21:37N 40°11' E 014°47'216.2
2017-Oct-16 21:30N 40°12' E 014°46'46 1.1
2017-Oct-15 05:20N 39°29' E 015°07'3916.1
2017-Oct-15 02:54N 38°53' E 015°26'615.9
2017-Oct-15 02:30N 38°47' E 015°28'816.4
2017-Oct-15 02:00N 38°39' E 015°32'816.2
2017-Oct-15 01:30N 38°32' E 015°36'815.9
2017-Oct-15 01:00N 38°25' E 015°40'815.7
2017-Oct-15 00:31N 38°17' E 015°43'714.8
2017-Oct-15 00:00N 38°12' E 015°37'815.6
2017-Oct-14 23:30N 38°04' E 015°36'815.2
2017-Oct-14 23:00N 37°57' E 015°32'815.1
2017-Oct-14 22:30N 37°51' E 015°27'10 0.7
2017-Oct-14 08:18N 37°43' E 015°19'715.7
2017-Oct-14 07:53N 37°49' E 015°22'615.4
2017-Oct-14 07:29N 37°55' E 015°26'715.4
2017-Oct-14 07:00N 38°01' E 015°29'815.3
2017-Oct-14 06:30N 38°08' E 015°34'816.5
2017-Oct-14 06:00N 38°15' E 015°39'714.5
2017-Oct-14 05:30N 38°23' E 015°38'816.0
2017-Oct-14 05:00N 38°30' E 015°34'816.1
2017-Oct-14 04:30N 38°37' E 015°30'816.1
2017-Oct-14 03:59N 38°45' E 015°26'916.1
2017-Oct-14 03:26N 38°53' E 015°22'3315.7
2017-Oct-14 01:21N 39°24' E 015°08'35 1.9
2017-Oct-13 06:30N 39°57' E 014°53'916.1
2017-Oct-13 05:58N 39°49' E 014°57'2115.8
2017-Oct-13 04:37N 39°29' E 015°07'215.8
2017-Oct-13 04:29N 39°27' E 015°08'2316.0
2017-Oct-13 03:02N 39°06' E 015°19'116.3
2017-Oct-13 02:58N 39°05' E 015°20'816.0
2017-Oct-13 02:28N 38°57' E 015°23'815.7
2017-Oct-13 01:59N 38°50' E 015°27'715.6
2017-Oct-13 01:30N 38°43' E 015°31'815.8
2017-Oct-13 01:00N 38°36' E 015°34'815.8
2017-Oct-13 00:29N 38°28' E 015°38'715.7
2017-Oct-13 00:00N 38°21' E 015°42'713.2
2017-Oct-12 23:30N 38°15' E 015°40'714.1
2017-Oct-12 23:00N 38°09' E 015°37'715.0
2017-Oct-12 22:30N 38°01' E 015°35'815.2
2017-Oct-12 22:00N 37°55' E 015°30'11 0.8
2017-Oct-12 07:44N 37°46' E 015°21'415.7
2017-Oct-12 07:29N 37°50' E 015°23'715.5
2017-Oct-12 07:00N 37°56' E 015°28'815.9
2017-Oct-12 06:30N 38°04' E 015°32'815.8
2017-Oct-12 06:01N 38°11' E 015°36'714.7
2017-Oct-12 05:31N 38°17' E 015°41'815.5
2017-Oct-12 05:00N 38°24' E 015°38'815.7
2017-Oct-12 04:30N 38°32' E 015°34'815.8
2017-Oct-12 04:00N 38°39' E 015°30'815.7
2017-Oct-12 03:30N 38°47' E 015°27'4115.5
2017-Oct-12 00:53N 39°25' E 015°09'3115.3
2017-Oct-11 22:50N 39°54' E 014°54'91 4.0
2017-Oct-11 00:00N 38°30' E 015°40'815.5
2017-Oct-10 23:30N 38°22' E 015°42'713.4
2017-Oct-10 23:01N 38°16' E 015°42'713.3
2017-Oct-10 22:30N 38°10' E 015°37'815.4
2017-Oct-10 22:00N 38°03' E 015°36'815.3
2017-Oct-10 21:30N 37°56' E 015°30'3 0.2
2017-Oct-10 06:43N 37°55' E 015°27'316.2
2017-Oct-10 06:30N 37°58' E 015°29'815.6
2017-Oct-10 06:01N 38°05' E 015°33'714.8
2017-Oct-10 05:30N 38°12' E 015°36'612.2
2017-Oct-10 05:00N 38°17' E 015°41'612.6
2017-Oct-10 04:30N 38°23' E 015°39'815.8
2017-Oct-10 04:00N 38°30' E 015°35'816.2
2017-Oct-10 03:30N 38°38' E 015°31'815.7
2017-Oct-10 03:00N 38°45' E 015°28'815.4
2017-Oct-10 02:28N 38°53' E 015°24'815.5
2017-Oct-10 01:57N 39°01' E 015°21'2615.7
2017-Oct-10 00:18N 39°25' E 015°10'  
Track history (hours):
 
Tides and Currents Weather Stations Pressure Air Temp Water Temp Dewpoint Dewpoint Depression Visibility Wind Speed Wind Dir Waves Ship Positions

Norse Mersey

Operator: Norse Merchant Ferries

Last reported at 2017-Oct-18 05:34 UTC. Time now 2017-Oct-18 09:18 UTC.
Position N 39°55' E 014°54'.

Length 175 m; draft 5.6 m.

Type: Passenger vessel. MMSI: 247026000.

Date/timePositionNaut miles runAvg speedWind from/ knotsBaromVisibWave heightAir tempDewpointWater temp
2017-Oct-18 05:34N 39°55' E 014°54'2815.7
2017-Oct-18 03:48N 39°29' E 015°08'3815.7
2017-Oct-18 01:22N 38°54' E 015°25'2216.0
2017-Oct-17 23:58N 38°33' E 015°35'715.8
2017-Oct-17 23:30N 38°26' E 015°39'815.6
2017-Oct-17 23:00N 38°19' E 015°43'612.4
2017-Oct-17 22:29N 38°14' E 015°37'714.7
2017-Oct-17 22:00N 38°07' E 015°36'815.1
2017-Oct-17 21:30N 37°60' E 015°33'1715.4
2017-Oct-17 20:23N 37°45' E 015°23'10 0.8
2017-Oct-17 07:37N 37°54' E 015°26'915.7
2017-Oct-17 07:04N 38°02' E 015°31'315.3
2017-Oct-17 06:51N 38°05' E 015°32'515.2
2017-Oct-17 06:30N 38°10' E 015°35'813.8
2017-Oct-17 05:54N 38°17' E 015°40'1 3.5
2017-Oct-17 05:30N 38°18' E 015°41'4 9.0
2017-Oct-17 05:00N 38°23' E 015°39'913.2
2017-Oct-17 04:20N 38°31' E 015°35'714.9
2017-Oct-17 03:52N 38°37' E 015°32'2515.7
2017-Oct-17 02:17N 39°01' E 015°21'2615.8
2017-Oct-17 00:40N 39°25' E 015°09'4916.1
2017-Oct-16 21:37N 40°11' E 014°47'216.2
2017-Oct-16 21:30N 40°12' E 014°46'46 1.1
2017-Oct-15 05:20N 39°29' E 015°07'3916.1
2017-Oct-15 02:54N 38°53' E 015°26'615.9
2017-Oct-15 02:30N 38°47' E 015°28'816.4
2017-Oct-15 02:00N 38°39' E 015°32'816.2
2017-Oct-15 01:30N 38°32' E 015°36'815.9
2017-Oct-15 01:00N 38°25' E 015°40'815.7
2017-Oct-15 00:31N 38°17' E 015°43'714.8
2017-Oct-15 00:00N 38°12' E 015°37'815.6
2017-Oct-14 23:30N 38°04' E 015°36'815.2
2017-Oct-14 23:00N 37°57' E 015°32'815.1
2017-Oct-14 22:30N 37°51' E 015°27'10 0.7
2017-Oct-14 08:18N 37°43' E 015°19'715.7
2017-Oct-14 07:53N 37°49' E 015°22'615.4
2017-Oct-14 07:29N 37°55' E 015°26'715.4
2017-Oct-14 07:00N 38°01' E 015°29'815.3
2017-Oct-14 06:30N 38°08' E 015°34'816.5
2017-Oct-14 06:00N 38°15' E 015°39'714.5
2017-Oct-14 05:30N 38°23' E 015°38'816.0
2017-Oct-14 05:00N 38°30' E 015°34'816.1
2017-Oct-14 04:30N 38°37' E 015°30'816.1
2017-Oct-14 03:59N 38°45' E 015°26'916.1
2017-Oct-14 03:26N 38°53' E 015°22'3315.7
2017-Oct-14 01:21N 39°24' E 015°08'35 1.9
2017-Oct-13 06:30N 39°57' E 014°53'916.1
2017-Oct-13 05:58N 39°49' E 014°57'2115.8
2017-Oct-13 04:37N 39°29' E 015°07'215.8
2017-Oct-13 04:29N 39°27' E 015°08'2316.0
2017-Oct-13 03:02N 39°06' E 015°19'116.3
2017-Oct-13 02:58N 39°05' E 015°20'816.0
2017-Oct-13 02:28N 38°57' E 015°23'815.7
2017-Oct-13 01:59N 38°50' E 015°27'715.6
2017-Oct-13 01:30N 38°43' E 015°31'815.8
2017-Oct-13 01:00N 38°36' E 015°34'815.8
2017-Oct-13 00:29N 38°28' E 015°38'715.7
2017-Oct-13 00:00N 38°21' E 015°42'713.2
2017-Oct-12 23:30N 38°15' E 015°40'714.1
2017-Oct-12 23:00N 38°09' E 015°37'715.0
2017-Oct-12 22:30N 38°01' E 015°35'815.2
2017-Oct-12 22:00N 37°55' E 015°30'11 0.8
2017-Oct-12 07:44N 37°46' E 015°21'415.7
2017-Oct-12 07:29N 37°50' E 015°23'715.5
2017-Oct-12 07:00N 37°56' E 015°28'815.9
2017-Oct-12 06:30N 38°04' E 015°32'815.8
2017-Oct-12 06:01N 38°11' E 015°36'714.7
2017-Oct-12 05:31N 38°17' E 015°41'815.5
2017-Oct-12 05:00N 38°24' E 015°38'815.7
2017-Oct-12 04:30N 38°32' E 015°34'815.8
2017-Oct-12 04:00N 38°39' E 015°30'815.7
2017-Oct-12 03:30N 38°47' E 015°27'4115.5
2017-Oct-12 00:53N 39°25' E 015°09'3115.3
2017-Oct-11 22:50N 39°54' E 014°54'91 4.0
2017-Oct-11 00:00N 38°30' E 015°40'815.5
2017-Oct-10 23:30N 38°22' E 015°42'713.4
2017-Oct-10 23:01N 38°16' E 015°42'713.3
2017-Oct-10 22:30N 38°10' E 015°37'815.4
2017-Oct-10 22:00N 38°03' E 015°36'815.3
2017-Oct-10 21:30N 37°56' E 015°30'3 0.2
2017-Oct-10 06:43N 37°55' E 015°27'316.2
2017-Oct-10 06:30N 37°58' E 015°29'815.6
2017-Oct-10 06:01N 38°05' E 015°33'714.8
2017-Oct-10 05:30N 38°12' E 015°36'612.2
2017-Oct-10 05:00N 38°17' E 015°41'612.6
2017-Oct-10 04:30N 38°23' E 015°39'815.8
2017-Oct-10 04:00N 38°30' E 015°35'816.2
2017-Oct-10 03:30N 38°38' E 015°31'815.7
2017-Oct-10 03:00N 38°45' E 015°28'815.4
2017-Oct-10 02:28N 38°53' E 015°24'815.5
2017-Oct-10 01:57N 39°01' E 015°21'2615.7
2017-Oct-10 00:18N 39°25' E 015°10'  

Dump ship's entire track history